sensor_id;sensor_type;location;lat;lon;timestamp;P1;durP1;ratioP1;P2;durP2;ratioP2
58384;SDS011;44185;47.844;8.966;2022-07-30T00:02:14;5.72;;;4.30;;
58384;SDS011;44185;47.844;8.966;2022-07-30T00:04:39;6.80;;;4.28;;
58384;SDS011;44185;47.844;8.966;2022-07-30T00:07:05;6.63;;;4.13;;
58384;SDS011;44185;47.844;8.966;2022-07-30T00:09:31;9.88;;;4.82;;
58384;SDS011;44185;47.844;8.966;2022-07-30T00:11:56;8.15;;;4.20;;
58384;SDS011;44185;47.844;8.966;2022-07-30T00:14:22;7.93;;;4.20;;
58384;SDS011;44185;47.844;8.966;2022-07-30T00:16:48;8.00;;;4.53;;
58384;SDS011;44185;47.844;8.966;2022-07-30T00:19:14;7.85;;;4.32;;
58384;SDS011;44185;47.844;8.966;2022-07-30T00:21:39;7.90;;;4.38;;
58384;SDS011;44185;47.844;8.966;2022-07-30T00:24:05;6.50;;;4.03;;
58384;SDS011;44185;47.844;8.966;2022-07-30T00:26:31;7.97;;;4.30;;
58384;SDS011;44185;47.844;8.966;2022-07-30T00:28:56;8.15;;;4.53;;
58384;SDS011;44185;47.844;8.966;2022-07-30T00:31:22;8.02;;;4.80;;
58384;SDS011;44185;47.844;8.966;2022-07-30T00:33:49;5.75;;;4.20;;
58384;SDS011;44185;47.844;8.966;2022-07-30T00:36:14;8.95;;;3.75;;
58384;SDS011;44185;47.844;8.966;2022-07-30T00:38:40;6.40;;;4.20;;
58384;SDS011;44185;47.844;8.966;2022-07-30T00:41:05;8.70;;;4.30;;
58384;SDS011;44185;47.844;8.966;2022-07-30T00:43:31;7.90;;;4.30;;
58384;SDS011;44185;47.844;8.966;2022-07-30T00:45:56;7.97;;;4.40;;
58384;SDS011;44185;47.844;8.966;2022-07-30T00:48:21;7.80;;;4.30;;
58384;SDS011;44185;47.844;8.966;2022-07-30T00:50:48;7.43;;;4.22;;
58384;SDS011;44185;47.844;8.966;2022-07-30T00:53:14;7.18;;;3.97;;
58384;SDS011;44185;47.844;8.966;2022-07-30T00:55:39;7.53;;;4.82;;
58384;SDS011;44185;47.844;8.966;2022-07-30T00:58:05;7.57;;;3.97;;
58384;SDS011;44185;47.844;8.966;2022-07-30T01:00:30;5.35;;;4.15;;
58384;SDS011;44185;47.844;8.966;2022-07-30T01:02:56;8.10;;;4.30;;
58384;SDS011;44185;47.844;8.966;2022-07-30T01:05:21;7.15;;;4.45;;
58384;SDS011;44185;47.844;8.966;2022-07-30T01:07:48;7.60;;;4.30;;
58384;SDS011;44185;47.844;8.966;2022-07-30T01:10:14;6.40;;;4.43;;
58384;SDS011;44185;47.844;8.966;2022-07-30T01:12:40;6.10;;;3.85;;
58384;SDS011;44185;47.844;8.966;2022-07-30T01:15:07;8.40;;;4.22;;
58384;SDS011;44185;47.844;8.966;2022-07-30T01:17:34;6.23;;;4.23;;
58384;SDS011;44185;47.844;8.966;2022-07-30T01:20:03;6.72;;;4.00;;
58384;SDS011;44185;47.844;8.966;2022-07-30T01:22:35;6.03;;;4.18;;
58384;SDS011;44185;47.844;8.966;2022-07-30T01:25:13;9.00;;;4.90;;
58384;SDS011;44185;47.844;8.966;2022-07-30T01:27:46;7.15;;;3.90;;
58384;SDS011;44185;47.844;8.966;2022-07-30T01:30:16;8.18;;;4.10;;
58384;SDS011;44185;47.844;8.966;2022-07-30T01:32:44;8.53;;;4.23;;
58384;SDS011;44185;47.844;8.966;2022-07-30T01:35:11;6.63;;;4.13;;
58384;SDS011;44185;47.844;8.966;2022-07-30T01:37:38;6.70;;;3.92;;
58384;SDS011;44185;47.844;8.966;2022-07-30T01:40:06;7.50;;;4.25;;
58384;SDS011;44185;47.844;8.966;2022-07-30T01:42:34;7.00;;;4.40;;
58384;SDS011;44185;47.844;8.966;2022-07-30T01:45:01;8.98;;;4.25;;
58384;SDS011;44185;47.844;8.966;2022-07-30T01:47:28;8.25;;;4.57;;
58384;SDS011;44185;47.844;8.966;2022-07-30T01:49:57;8.43;;;4.33;;
58384;SDS011;44185;47.844;8.966;2022-07-30T01:52:24;8.60;;;4.85;;
58384;SDS011;44185;47.844;8.966;2022-07-30T01:54:52;7.95;;;4.43;;
58384;SDS011;44185;47.844;8.966;2022-07-30T01:57:20;7.22;;;3.90;;
58384;SDS011;44185;47.844;8.966;2022-07-30T01:59:48;8.05;;;4.38;;
58384;SDS011;44185;47.844;8.966;2022-07-30T02:02:17;9.38;;;4.57;;
58384;SDS011;44185;47.844;8.966;2022-07-30T02:04:43;6.20;;;4.05;;
58384;SDS011;44185;47.844;8.966;2022-07-30T02:07:09;9.00;;;4.65;;
58384;SDS011;44185;47.844;8.966;2022-07-30T02:09:40;4.95;;;3.90;;
58384;SDS011;44185;47.844;8.966;2022-07-30T02:12:14;7.70;;;4.40;;
58384;SDS011;44185;47.844;8.966;2022-07-30T02:14:45;7.68;;;3.92;;
58384;SDS011;44185;47.844;8.966;2022-07-30T02:17:15;6.10;;;4.53;;
58384;SDS011;44185;47.844;8.966;2022-07-30T02:19:46;7.03;;;4.43;;
58384;SDS011;44185;47.844;8.966;2022-07-30T02:22:15;9.00;;;4.93;;
58384;SDS011;44185;47.844;8.966;2022-07-30T02:24:42;8.88;;;4.80;;
58384;SDS011;44185;47.844;8.966;2022-07-30T02:27:09;7.57;;;4.60;;
58384;SDS011;44185;47.844;8.966;2022-07-30T02:29:38;10.02;;;5.15;;
58384;SDS011;44185;47.844;8.966;2022-07-30T02:32:05;9.15;;;5.10;;
58384;SDS011;44185;47.844;8.966;2022-07-30T02:34:35;8.77;;;4.90;;
58384;SDS011;44185;47.844;8.966;2022-07-30T02:37:03;8.32;;;4.82;;
58384;SDS011;44185;47.844;8.966;2022-07-30T02:39:31;9.43;;;5.40;;
58384;SDS011;44185;47.844;8.966;2022-07-30T02:41:59;9.82;;;5.07;;
58384;SDS011;44185;47.844;8.966;2022-07-30T02:44:26;9.27;;;5.35;;
58384;SDS011;44185;47.844;8.966;2022-07-30T02:46:53;10.00;;;5.32;;
58384;SDS011;44185;47.844;8.966;2022-07-30T02:49:21;10.43;;;5.72;;
58384;SDS011;44185;47.844;8.966;2022-07-30T02:51:50;9.95;;;5.10;;
58384;SDS011;44185;47.844;8.966;2022-07-30T02:54:17;8.00;;;5.35;;
58384;SDS011;44185;47.844;8.966;2022-07-30T02:56:44;10.90;;;5.65;;
58384;SDS011;44185;47.844;8.966;2022-07-30T02:59:11;8.25;;;5.45;;
58384;SDS011;44185;47.844;8.966;2022-07-30T03:01:38;10.48;;;5.15;;
58384;SDS011;44185;47.844;8.966;2022-07-30T03:04:05;8.50;;;4.93;;
58384;SDS011;44185;47.844;8.966;2022-07-30T03:06:32;9.10;;;5.10;;
58384;SDS011;44185;47.844;8.966;2022-07-30T03:09:00;8.63;;;4.95;;
58384;SDS011;44185;47.844;8.966;2022-07-30T03:11:27;11.05;;;5.50;;
58384;SDS011;44185;47.844;8.966;2022-07-30T03:13:54;6.35;;;4.65;;
58384;SDS011;44185;47.844;8.966;2022-07-30T03:16:20;10.60;;;5.20;;
58384;SDS011;44185;47.844;8.966;2022-07-30T03:18:47;8.73;;;5.47;;
58384;SDS011;44185;47.844;8.966;2022-07-30T03:21:13;9.38;;;5.07;;
58384;SDS011;44185;47.844;8.966;2022-07-30T03:23:40;8.75;;;5.57;;
58384;SDS011;44185;47.844;8.966;2022-07-30T03:26:09;7.88;;;4.75;;
58384;SDS011;44185;47.844;8.966;2022-07-30T03:28:37;10.25;;;5.20;;
58384;SDS011;44185;47.844;8.966;2022-07-30T03:31:03;9.07;;;5.40;;
58384;SDS011;44185;47.844;8.966;2022-07-30T03:33:29;11.68;;;6.38;;
58384;SDS011;44185;47.844;8.966;2022-07-30T03:35:56;9.70;;;5.72;;
58384;SDS011;44185;47.844;8.966;2022-07-30T03:38:22;8.63;;;5.45;;
58384;SDS011;44185;47.844;8.966;2022-07-30T03:40:49;9.48;;;5.60;;
58384;SDS011;44185;47.844;8.966;2022-07-30T03:43:16;9.32;;;5.55;;
58384;SDS011;44185;47.844;8.966;2022-07-30T03:45:43;8.30;;;4.93;;
58384;SDS011;44185;47.844;8.966;2022-07-30T03:48:09;8.13;;;5.10;;
58384;SDS011;44185;47.844;8.966;2022-07-30T03:50:36;9.43;;;5.50;;
58384;SDS011;44185;47.844;8.966;2022-07-30T03:53:04;7.80;;;5.35;;
58384;SDS011;44185;47.844;8.966;2022-07-30T03:55:30;8.93;;;5.22;;
58384;SDS011;44185;47.844;8.966;2022-07-30T03:57:56;10.02;;;5.35;;
58384;SDS011;44185;47.844;8.966;2022-07-30T04:00:24;11.88;;;5.68;;
58384;SDS011;44185;47.844;8.966;2022-07-30T04:02:49;7.25;;;5.00;;
58384;SDS011;44185;47.844;8.966;2022-07-30T04:05:15;8.18;;;4.97;;
58384;SDS011;44185;47.844;8.966;2022-07-30T04:07:41;10.02;;;5.55;;
58384;SDS011;44185;47.844;8.966;2022-07-30T04:10:07;11.10;;;6.07;;
58384;SDS011;44185;47.844;8.966;2022-07-30T04:12:34;7.53;;;4.93;;
58384;SDS011;44185;47.844;8.966;2022-07-30T04:14:59;6.60;;;4.60;;
58384;SDS011;44185;47.844;8.966;2022-07-30T04:17:28;9.32;;;5.60;;
58384;SDS011;44185;47.844;8.966;2022-07-30T04:20:00;8.52;;;5.15;;
58384;SDS011;44185;47.844;8.966;2022-07-30T04:22:30;8.13;;;5.20;;
58384;SDS011;44185;47.844;8.966;2022-07-30T04:24:57;8.40;;;5.28;;
58384;SDS011;44185;47.844;8.966;2022-07-30T04:27:24;9.73;;;5.53;;
58384;SDS011;44185;47.844;8.966;2022-07-30T04:29:50;7.57;;;4.90;;
58384;SDS011;44185;47.844;8.966;2022-07-30T04:32:17;7.65;;;5.10;;
58384;SDS011;44185;47.844;8.966;2022-07-30T04:34:47;8.13;;;4.50;;
58384;SDS011;44185;47.844;8.966;2022-07-30T04:37:14;8.90;;;5.20;;
58384;SDS011;44185;47.844;8.966;2022-07-30T04:39:40;9.77;;;5.38;;
58384;SDS011;44185;47.844;8.966;2022-07-30T04:42:05;10.38;;;6.20;;
58384;SDS011;44185;47.844;8.966;2022-07-30T04:44:31;10.38;;;5.65;;
58384;SDS011;44185;47.844;8.966;2022-07-30T04:46:56;8.55;;;4.95;;
58384;SDS011;44185;47.844;8.966;2022-07-30T04:49:22;7.47;;;4.97;;
58384;SDS011;44185;47.844;8.966;2022-07-30T04:51:49;10.45;;;4.82;;
58384;SDS011;44185;47.844;8.966;2022-07-30T04:54:15;8.82;;;4.88;;
58384;SDS011;44185;47.844;8.966;2022-07-30T04:56:44;8.32;;;4.55;;
58384;SDS011;44185;47.844;8.966;2022-07-30T04:59:11;7.65;;;5.05;;
58384;SDS011;44185;47.844;8.966;2022-07-30T05:01:36;9.55;;;5.00;;
58384;SDS011;44185;47.844;8.966;2022-07-30T05:04:06;8.27;;;5.18;;
58384;SDS011;44185;47.844;8.966;2022-07-30T05:06:34;8.50;;;5.00;;
58384;SDS011;44185;47.844;8.966;2022-07-30T05:09:03;9.38;;;5.43;;
58384;SDS011;44185;47.844;8.966;2022-07-30T05:11:28;9.50;;;5.45;;
58384;SDS011;44185;47.844;8.966;2022-07-30T05:13:54;8.10;;;4.90;;
58384;SDS011;44185;47.844;8.966;2022-07-30T05:16:19;9.07;;;5.57;;
58384;SDS011;44185;47.844;8.966;2022-07-30T05:18:44;8.18;;;5.25;;
58384;SDS011;44185;47.844;8.966;2022-07-30T05:21:10;9.27;;;5.57;;
58384;SDS011;44185;47.844;8.966;2022-07-30T05:23:35;10.30;;;5.20;;
58384;SDS011;44185;47.844;8.966;2022-07-30T05:26:02;9.48;;;5.60;;
58384;SDS011;44185;47.844;8.966;2022-07-30T05:28:28;9.18;;;5.90;;
58384;SDS011;44185;47.844;8.966;2022-07-30T05:30:54;6.80;;;4.93;;
58384;SDS011;44185;47.844;8.966;2022-07-30T05:33:20;7.40;;;5.07;;
58384;SDS011;44185;47.844;8.966;2022-07-30T05:35:46;10.07;;;5.60;;
58384;SDS011;44185;47.844;8.966;2022-07-30T05:38:11;7.95;;;5.18;;
58384;SDS011;44185;47.844;8.966;2022-07-30T05:40:37;8.10;;;5.30;;
58384;SDS011;44185;47.844;8.966;2022-07-30T05:43:04;8.23;;;5.15;;
58384;SDS011;44185;47.844;8.966;2022-07-30T05:45:29;8.93;;;5.45;;
58384;SDS011;44185;47.844;8.966;2022-07-30T05:47:55;8.00;;;5.30;;
58384;SDS011;44185;47.844;8.966;2022-07-30T05:50:20;9.05;;;5.43;;
58384;SDS011;44185;47.844;8.966;2022-07-30T05:52:46;8.40;;;5.22;;
58384;SDS011;44185;47.844;8.966;2022-07-30T05:55:11;8.25;;;5.07;;
58384;SDS011;44185;47.844;8.966;2022-07-30T05:57:37;9.07;;;5.23;;
58384;SDS011;44185;47.844;8.966;2022-07-30T06:00:04;9.38;;;5.47;;
58384;SDS011;44185;47.844;8.966;2022-07-30T06:02:30;6.15;;;4.75;;
58384;SDS011;44185;47.844;8.966;2022-07-30T06:04:56;8.10;;;5.18;;
58384;SDS011;44185;47.844;8.966;2022-07-30T06:07:21;8.13;;;5.38;;
58384;SDS011;44185;47.844;8.966;2022-07-30T06:09:47;7.80;;;4.90;;
58384;SDS011;44185;47.844;8.966;2022-07-30T06:12:13;8.55;;;5.00;;
58384;SDS011;44185;47.844;8.966;2022-07-30T06:14:38;8.82;;;5.18;;
58384;SDS011;44185;47.844;8.966;2022-07-30T06:17:05;9.25;;;5.47;;
58384;SDS011;44185;47.844;8.966;2022-07-30T06:19:31;10.35;;;5.25;;
58384;SDS011;44185;47.844;8.966;2022-07-30T06:21:56;7.80;;;5.20;;
58384;SDS011;44185;47.844;8.966;2022-07-30T06:24:22;7.03;;;4.80;;
58384;SDS011;44185;47.844;8.966;2022-07-30T06:26:47;10.02;;;5.43;;
58384;SDS011;44185;47.844;8.966;2022-07-30T06:29:13;7.43;;;5.43;;
58384;SDS011;44185;47.844;8.966;2022-07-30T06:31:38;8.52;;;5.05;;
58384;SDS011;44185;47.844;8.966;2022-07-30T06:34:05;7.03;;;5.13;;
58384;SDS011;44185;47.844;8.966;2022-07-30T06:36:31;9.60;;;5.65;;
58384;SDS011;44185;47.844;8.966;2022-07-30T06:38:56;8.43;;;5.30;;
58384;SDS011;44185;47.844;8.966;2022-07-30T06:41:22;6.78;;;5.13;;
58384;SDS011;44185;47.844;8.966;2022-07-30T06:43:47;9.30;;;5.18;;
58384;SDS011;44185;47.844;8.966;2022-07-30T06:46:12;7.18;;;4.80;;
58384;SDS011;44185;47.844;8.966;2022-07-30T06:48:38;9.45;;;5.45;;
58384;SDS011;44185;47.844;8.966;2022-07-30T06:51:05;7.60;;;5.07;;
58384;SDS011;44185;47.844;8.966;2022-07-30T06:53:30;7.35;;;5.32;;
58384;SDS011;44185;47.844;8.966;2022-07-30T06:55:56;8.00;;;4.93;;
58384;SDS011;44185;47.844;8.966;2022-07-30T06:58:21;6.97;;;4.88;;
58384;SDS011;44185;47.844;8.966;2022-07-30T07:00:47;8.70;;;5.00;;
58384;SDS011;44185;47.844;8.966;2022-07-30T07:03:12;8.25;;;5.18;;
58384;SDS011;44185;47.844;8.966;2022-07-30T07:05:38;9.32;;;5.25;;
58384;SDS011;44185;47.844;8.966;2022-07-30T07:08:05;7.07;;;4.70;;
58384;SDS011;44185;47.844;8.966;2022-07-30T07:10:31;7.60;;;5.05;;
58384;SDS011;44185;47.844;8.966;2022-07-30T07:12:56;8.30;;;5.30;;
58384;SDS011;44185;47.844;8.966;2022-07-30T07:15:22;8.75;;;5.18;;
58384;SDS011;44185;47.844;8.966;2022-07-30T07:17:47;6.72;;;4.97;;
58384;SDS011;44185;47.844;8.966;2022-07-30T07:20:13;8.00;;;5.05;;
58384;SDS011;44185;47.844;8.966;2022-07-30T07:22:39;8.13;;;5.20;;
58384;SDS011;44185;47.844;8.966;2022-07-30T07:25:06;8.50;;;5.32;;
58384;SDS011;44185;47.844;8.966;2022-07-30T07:27:32;6.85;;;4.63;;
58384;SDS011;44185;47.844;8.966;2022-07-30T07:29:58;7.80;;;4.90;;
58384;SDS011;44185;47.844;8.966;2022-07-30T07:32:23;5.78;;;4.68;;
58384;SDS011;44185;47.844;8.966;2022-07-30T07:34:49;5.65;;;4.45;;
58384;SDS011;44185;47.844;8.966;2022-07-30T07:37:14;7.28;;;4.90;;
58384;SDS011;44185;47.844;8.966;2022-07-30T07:39:40;7.07;;;4.72;;
58384;SDS011;44185;47.844;8.966;2022-07-30T07:42:07;6.90;;;4.47;;
58384;SDS011;44185;47.844;8.966;2022-07-30T07:44:32;7.55;;;5.20;;
58384;SDS011;44185;47.844;8.966;2022-07-30T07:46:58;4.63;;;4.10;;
58384;SDS011;44185;47.844;8.966;2022-07-30T07:49:23;5.55;;;4.03;;
58384;SDS011;44185;47.844;8.966;2022-07-30T07:51:49;6.88;;;4.28;;
58384;SDS011;44185;47.844;8.966;2022-07-30T07:54:14;5.75;;;4.30;;
58384;SDS011;44185;47.844;8.966;2022-07-30T07:56:40;5.40;;;4.53;;
58384;SDS011;44185;47.844;8.966;2022-07-30T07:59:07;8.40;;;4.40;;
58384;SDS011;44185;47.844;8.966;2022-07-30T08:01:32;4.75;;;4.15;;
58384;SDS011;44185;47.844;8.966;2022-07-30T08:03:58;5.53;;;4.30;;
58384;SDS011;44185;47.844;8.966;2022-07-30T08:06:23;6.07;;;4.30;;
58384;SDS011;44185;47.844;8.966;2022-07-30T08:08:49;8.30;;;4.60;;
58384;SDS011;44185;47.844;8.966;2022-07-30T08:11:14;7.22;;;4.03;;
58384;SDS011;44185;47.844;8.966;2022-07-30T08:13:40;4.88;;;3.92;;
58384;SDS011;44185;47.844;8.966;2022-07-30T08:16:07;9.05;;;4.32;;
58384;SDS011;44185;47.844;8.966;2022-07-30T08:18:32;5.68;;;4.07;;
58384;SDS011;44185;47.844;8.966;2022-07-30T08:20:59;4.85;;;3.80;;
58384;SDS011;44185;47.844;8.966;2022-07-30T08:23:24;7.00;;;4.15;;
58384;SDS011;44185;47.844;8.966;2022-07-30T08:25:50;7.07;;;4.20;;
58384;SDS011;44185;47.844;8.966;2022-07-30T08:28:15;5.95;;;4.28;;
58384;SDS011;44185;47.844;8.966;2022-07-30T08:30:41;8.23;;;4.37;;
58384;SDS011;44185;47.844;8.966;2022-07-30T08:33:08;6.18;;;4.07;;
58384;SDS011;44185;47.844;8.966;2022-07-30T08:35:34;6.85;;;4.18;;
58384;SDS011;44185;47.844;8.966;2022-07-30T08:37:59;7.25;;;4.22;;
58384;SDS011;44185;47.844;8.966;2022-07-30T08:40:25;7.13;;;4.10;;
58384;SDS011;44185;47.844;8.966;2022-07-30T08:42:50;4.85;;;4.18;;
58384;SDS011;44185;47.844;8.966;2022-07-30T08:45:17;7.55;;;4.60;;
58384;SDS011;44185;47.844;8.966;2022-07-30T08:47:43;7.68;;;4.40;;
58384;SDS011;44185;47.844;8.966;2022-07-30T08:50:11;6.82;;;4.10;;
58384;SDS011;44185;47.844;8.966;2022-07-30T08:52:37;6.15;;;3.80;;
58384;SDS011;44185;47.844;8.966;2022-07-30T08:55:04;6.95;;;4.10;;
58384;SDS011;44185;47.844;8.966;2022-07-30T08:57:30;5.40;;;3.90;;
58384;SDS011;44185;47.844;8.966;2022-07-30T08:59:57;6.43;;;3.85;;
58384;SDS011;44185;47.844;8.966;2022-07-30T09:02:23;4.68;;;3.97;;
58384;SDS011;44185;47.844;8.966;2022-07-30T09:04:49;5.82;;;4.00;;
58384;SDS011;44185;47.844;8.966;2022-07-30T09:07:16;4.97;;;3.58;;
58384;SDS011;44185;47.844;8.966;2022-07-30T09:09:42;6.10;;;3.88;;
58384;SDS011;44185;47.844;8.966;2022-07-30T09:15:01;9.07;;;3.72;;
58384;SDS011;44185;47.844;8.966;2022-07-30T09:17:47;4.93;;;3.20;;
58384;SDS011;44185;47.844;8.966;2022-07-30T09:20:15;3.35;;;3.05;;
58384;SDS011;44185;47.844;8.966;2022-07-30T09:22:43;4.38;;;2.92;;
58384;SDS011;44185;47.844;8.966;2022-07-30T09:25:10;3.73;;;3.13;;
58384;SDS011;44185;47.844;8.966;2022-07-30T09:27:42;4.13;;;3.10;;
58384;SDS011;44185;47.844;8.966;2022-07-30T09:30:09;3.40;;;3.05;;
58384;SDS011;44185;47.844;8.966;2022-07-30T09:32:45;6.60;;;3.03;;
58384;SDS011;44185;47.844;8.966;2022-07-30T09:35:12;3.30;;;3.00;;
58384;SDS011;44185;47.844;8.966;2022-07-30T09:37:39;4.00;;;3.00;;
58384;SDS011;44185;47.844;8.966;2022-07-30T09:40:11;4.95;;;3.20;;
58384;SDS011;44185;47.844;8.966;2022-07-30T09:42:38;3.78;;;3.00;;
58384;SDS011;44185;47.844;8.966;2022-07-30T09:45:04;2.90;;;2.70;;
58384;SDS011;44185;47.844;8.966;2022-07-30T09:47:32;4.43;;;2.95;;
58384;SDS011;44185;47.844;8.966;2022-07-30T09:50:02;7.05;;;2.88;;
58384;SDS011;44185;47.844;8.966;2022-07-30T09:52:28;3.67;;;2.92;;
58384;SDS011;44185;47.844;8.966;2022-07-30T09:54:54;3.38;;;2.92;;
58384;SDS011;44185;47.844;8.966;2022-07-30T09:57:21;5.40;;;3.30;;
58384;SDS011;44185;47.844;8.966;2022-07-30T09:59:46;4.00;;;3.30;;
58384;SDS011;44185;47.844;8.966;2022-07-30T10:02:12;3.85;;;3.20;;
58384;SDS011;44185;47.844;8.966;2022-07-30T10:04:37;3.92;;;3.00;;
58384;SDS011;44185;47.844;8.966;2022-07-30T10:07:04;4.97;;;2.70;;
58384;SDS011;44185;47.844;8.966;2022-07-30T10:09:40;4.53;;;2.78;;
58384;SDS011;44185;47.844;8.966;2022-07-30T10:12:06;4.30;;;2.88;;
58384;SDS011;44185;47.844;8.966;2022-07-30T10:14:36;5.03;;;3.10;;
58384;SDS011;44185;47.844;8.966;2022-07-30T10:17:02;4.93;;;3.20;;
58384;SDS011;44185;47.844;8.966;2022-07-30T10:19:29;3.53;;;3.10;;
58384;SDS011;44185;47.844;8.966;2022-07-30T10:21:56;4.43;;;3.28;;
58384;SDS011;44185;47.844;8.966;2022-07-30T10:24:23;3.90;;;3.15;;
58384;SDS011;44185;47.844;8.966;2022-07-30T10:26:50;4.32;;;3.00;;
58384;SDS011;44185;47.844;8.966;2022-07-30T10:29:17;4.70;;;3.05;;
58384;SDS011;44185;47.844;8.966;2022-07-30T10:31:45;6.00;;;3.13;;
58384;SDS011;44185;47.844;8.966;2022-07-30T10:34:12;3.63;;;3.22;;
58384;SDS011;44185;47.844;8.966;2022-07-30T10:36:39;3.42;;;3.13;;
58384;SDS011;44185;47.844;8.966;2022-07-30T10:39:07;5.68;;;3.10;;
58384;SDS011;44185;47.844;8.966;2022-07-30T10:41:39;3.42;;;3.13;;
58384;SDS011;44185;47.844;8.966;2022-07-30T10:47:10;4.28;;;2.97;;
58384;SDS011;44185;47.844;8.966;2022-07-30T10:49:38;4.88;;;3.08;;
58384;SDS011;44185;47.844;8.966;2022-07-30T10:52:04;3.85;;;3.33;;
58384;SDS011;44185;47.844;8.966;2022-07-30T10:54:37;4.28;;;3.17;;
58384;SDS011;44185;47.844;8.966;2022-07-30T10:57:07;4.97;;;3.20;;
58384;SDS011;44185;47.844;8.966;2022-07-30T11:02:36;3.95;;;3.10;;
58384;SDS011;44185;47.844;8.966;2022-07-30T11:05:21;4.90;;;3.40;;
58384;SDS011;44185;47.844;8.966;2022-07-30T11:07:47;4.15;;;3.13;;
58384;SDS011;44185;47.844;8.966;2022-07-30T11:12:58;4.45;;;3.10;;
58384;SDS011;44185;47.844;8.966;2022-07-30T11:15:23;5.16;;;2.96;;
58384;SDS011;44185;47.844;8.966;2022-07-30T11:18:23;3.40;;;3.10;;
58384;SDS011;44185;47.844;8.966;2022-07-30T11:23:40;4.25;;;3.05;;
58384;SDS011;44185;47.844;8.966;2022-07-30T11:26:06;6.22;;;3.55;;
58384;SDS011;44185;47.844;8.966;2022-07-30T11:28:32;6.28;;;3.17;;
58384;SDS011;44185;47.844;8.966;2022-07-30T11:30:59;5.72;;;3.30;;
58384;SDS011;44185;47.844;8.966;2022-07-30T11:33:26;4.55;;;3.08;;
58384;SDS011;44185;47.844;8.966;2022-07-30T11:36:04;3.40;;;3.10;;
58384;SDS011;44185;47.844;8.966;2022-07-30T11:41:15;4.85;;;3.30;;
58384;SDS011;44185;47.844;8.966;2022-07-30T11:43:41;5.25;;;3.35;;
58384;SDS011;44185;47.844;8.966;2022-07-30T11:46:07;3.70;;;3.20;;
58384;SDS011;44185;47.844;8.966;2022-07-30T11:48:35;3.45;;;3.15;;
58384;SDS011;44185;47.844;8.966;2022-07-30T11:51:02;7.45;;;3.08;;
58384;SDS011;44185;47.844;8.966;2022-07-30T11:53:28;4.43;;;3.25;;
58384;SDS011;44185;47.844;8.966;2022-07-30T11:55:55;2.95;;;2.75;;
58384;SDS011;44185;47.844;8.966;2022-07-30T11:58:23;3.65;;;3.33;;
58384;SDS011;44185;47.844;8.966;2022-07-30T12:00:51;6.93;;;3.53;;
58384;SDS011;44185;47.844;8.966;2022-07-30T12:03:19;6.15;;;3.40;;
58384;SDS011;44185;47.844;8.966;2022-07-30T12:05:47;4.25;;;3.38;;
58384;SDS011;44185;47.844;8.966;2022-07-30T12:08:13;4.80;;;3.40;;
58384;SDS011;44185;47.844;8.966;2022-07-30T12:10:40;4.68;;;3.50;;
58384;SDS011;44185;47.844;8.966;2022-07-30T12:13:10;5.47;;;3.53;;
58384;SDS011;44185;47.844;8.966;2022-07-30T12:15:37;4.55;;;3.70;;
58384;SDS011;44185;47.844;8.966;2022-07-30T12:18:04;3.63;;;3.30;;
58384;SDS011;44185;47.844;8.966;2022-07-30T12:20:30;4.07;;;3.10;;
58384;SDS011;44185;47.844;8.966;2022-07-30T12:22:57;3.42;;;3.13;;
58384;SDS011;44185;47.844;8.966;2022-07-30T12:25:22;3.45;;;3.00;;
58384;SDS011;44185;47.844;8.966;2022-07-30T12:27:48;6.68;;;3.22;;
58384;SDS011;44185;47.844;8.966;2022-07-30T12:30:14;6.43;;;3.20;;
58384;SDS011;44185;47.844;8.966;2022-07-30T12:32:41;5.40;;;3.70;;
58384;SDS011;44185;47.844;8.966;2022-07-30T12:35:06;4.35;;;3.08;;
58384;SDS011;44185;47.844;8.966;2022-07-30T12:37:32;2.70;;;2.50;;
58384;SDS011;44185;47.844;8.966;2022-07-30T12:40:07;3.33;;;2.42;;
58384;SDS011;44185;47.844;8.966;2022-07-30T12:42:34;3.47;;;2.60;;
58384;SDS011;44185;47.844;8.966;2022-07-30T12:44:59;3.50;;;3.10;;
58384;SDS011;44185;47.844;8.966;2022-07-30T12:47:25;4.05;;;3.00;;
58384;SDS011;44185;47.844;8.966;2022-07-30T12:49:52;4.50;;;2.95;;
58384;SDS011;44185;47.844;8.966;2022-07-30T12:52:19;4.70;;;3.10;;
58384;SDS011;44185;47.844;8.966;2022-07-30T12:54:54;4.93;;;2.90;;
58384;SDS011;44185;47.844;8.966;2022-07-30T12:57:22;3.55;;;3.25;;
58384;SDS011;44185;47.844;8.966;2022-07-30T12:59:59;4.70;;;3.00;;
58384;SDS011;44185;47.844;8.966;2022-07-30T13:02:29;4.30;;;2.50;;
58384;SDS011;44185;47.844;8.966;2022-07-30T13:04:55;7.03;;;2.90;;
58384;SDS011;44185;47.844;8.966;2022-07-30T13:07:21;2.70;;;2.30;;
58384;SDS011;44185;47.844;8.966;2022-07-30T13:09:46;3.35;;;2.45;;
58384;SDS011;44185;47.844;8.966;2022-07-30T13:12:30;3.58;;;2.70;;
58384;SDS011;44185;47.844;8.966;2022-07-30T13:14:56;3.65;;;2.58;;
58384;SDS011;44185;47.844;8.966;2022-07-30T13:17:21;2.88;;;2.67;;
58384;SDS011;44185;47.844;8.966;2022-07-30T13:19:47;3.65;;;2.80;;
58384;SDS011;44185;47.844;8.966;2022-07-30T13:22:12;3.00;;;2.65;;
58384;SDS011;44185;47.844;8.966;2022-07-30T13:24:38;4.30;;;3.07;;
58384;SDS011;44185;47.844;8.966;2022-07-30T13:27:04;3.85;;;2.83;;
58384;SDS011;44185;47.844;8.966;2022-07-30T13:29:30;4.72;;;3.30;;
58384;SDS011;44185;47.844;8.966;2022-07-30T13:31:56;4.10;;;2.90;;
58384;SDS011;44185;47.844;8.966;2022-07-30T13:34:21;4.35;;;2.72;;
58384;SDS011;44185;47.844;8.966;2022-07-30T13:36:47;2.75;;;2.55;;
58384;SDS011;44185;47.844;8.966;2022-07-30T13:39:12;2.90;;;2.67;;
58384;SDS011;44185;47.844;8.966;2022-07-30T13:41:38;3.72;;;2.78;;
58384;SDS011;44185;47.844;8.966;2022-07-30T13:44:04;4.47;;;2.90;;
58384;SDS011;44185;47.844;8.966;2022-07-30T13:46:31;4.93;;;2.72;;
58384;SDS011;44185;47.844;8.966;2022-07-30T13:48:56;2.67;;;2.47;;
58384;SDS011;44185;47.844;8.966;2022-07-30T13:51:21;4.65;;;2.70;;
58384;SDS011;44185;47.844;8.966;2022-07-30T13:53:47;3.75;;;2.60;;
58384;SDS011;44185;47.844;8.966;2022-07-30T13:56:12;3.15;;;2.42;;
58384;SDS011;44185;47.844;8.966;2022-07-30T13:58:38;3.30;;;2.60;;
58384;SDS011;44185;47.844;8.966;2022-07-30T14:01:04;3.13;;;2.35;;
58384;SDS011;44185;47.844;8.966;2022-07-30T14:03:30;4.22;;;2.60;;
58384;SDS011;44185;47.844;8.966;2022-07-30T14:05:56;3.20;;;2.75;;
58384;SDS011;44185;47.844;8.966;2022-07-30T14:08:21;5.70;;;2.50;;
58384;SDS011;44185;47.844;8.966;2022-07-30T14:10:47;5.47;;;2.92;;
58384;SDS011;44185;47.844;8.966;2022-07-30T14:13:12;4.35;;;2.47;;
58384;SDS011;44185;47.844;8.966;2022-07-30T14:15:38;3.33;;;2.70;;
58384;SDS011;44185;47.844;8.966;2022-07-30T14:18:04;3.33;;;3.03;;
58384;SDS011;44185;47.844;8.966;2022-07-30T14:20:31;3.38;;;2.60;;
58384;SDS011;44185;47.844;8.966;2022-07-30T14:22:56;2.90;;;2.60;;
58384;SDS011;44185;47.844;8.966;2022-07-30T14:25:22;3.70;;;2.57;;
58384;SDS011;44185;47.844;8.966;2022-07-30T14:27:48;3.03;;;2.60;;
58384;SDS011;44185;47.844;8.966;2022-07-30T14:30:13;4.43;;;2.38;;
58384;SDS011;44185;47.844;8.966;2022-07-30T14:32:39;3.45;;;2.80;;
58384;SDS011;44185;47.844;8.966;2022-07-30T14:35:06;3.63;;;3.28;;
58384;SDS011;44185;47.844;8.966;2022-07-30T14:37:35;5.47;;;2.70;;
58384;SDS011;44185;47.844;8.966;2022-07-30T14:40:01;3.85;;;2.70;;
58384;SDS011;44185;47.844;8.966;2022-07-30T14:42:27;3.25;;;2.58;;
58384;SDS011;44185;47.844;8.966;2022-07-30T14:44:53;9.05;;;2.97;;
58384;SDS011;44185;47.844;8.966;2022-07-30T14:47:19;2.88;;;2.65;;
58384;SDS011;44185;47.844;8.966;2022-07-30T14:49:44;3.72;;;2.70;;
58384;SDS011;44185;47.844;8.966;2022-07-30T14:52:10;2.50;;;2.40;;
58384;SDS011;44185;47.844;8.966;2022-07-30T14:54:36;4.05;;;2.60;;
58384;SDS011;44185;47.844;8.966;2022-07-30T14:57:02;3.20;;;2.80;;
58384;SDS011;44185;47.844;8.966;2022-07-30T14:59:28;3.20;;;2.55;;
58384;SDS011;44185;47.844;8.966;2022-07-30T15:01:53;4.22;;;2.60;;
58384;SDS011;44185;47.844;8.966;2022-07-30T15:04:19;3.38;;;2.88;;